Rio Cuarto, Argentina

10:26 PM ART on October 20, 2014 (GMT -0300)
Area De Material | Change Station
CLOSE
Current Station
Airport
Location: Rio Cuarto,
Elevation: 1381 ft
Nearby Weather Stations

Elev 1381 ft 33.12 °S, 64.23 °W | Updated 26 minutes ago

Clear
Clear
68 °F
Feels Like 68 °F
N
16
Wind Variable Wind from North

Today
High -- | Low -- °F
--% Chance of Precip.
Yesterday
High -- | Low -- °F
Precip. -- in
6:30 AM 7:33 PM
Waning Crescent, 8% visible
Pressure 30.04 in
Visibility -9999.0 miles
Clouds
Dew Point 48 °F
Humidity 49%
Rainfall 0.00 in
Snow Depth Not available.
UV Not available.
Pollen Not available.
Air Quality Not available.
Flu Activity Not available.
METAR SAOC 210100Z 36014KT CAVOK 20/09 Q1017

More Conditions Fewer Conditions

Pressure 30.04 in
Visibility -9999.0 miles
Clouds
Dew Point 48 °F
Humidity 49%
Rainfall 0.00 in
Snow Depth Not available.
UV Not available.
Pollen Not available.
Air Quality Not available.
Flu Activity Not available.
METAR SAOC 210100Z 36014KT CAVOK 20/09 Q1017

More Conditions Fewer Conditions

10-Day Weather Forecast

Almanac

Astronomy

Oct. 20, 2014 Rise Set
Actual Time 6:30 AM ART 7:33 PM ART
Civil Twilight 6:04 AM ART 7:59 PM ART
Nautical Twilight 5:34 AM ART 8:29 PM ART
Astronomical Twilight 5:03 AM ART 9:00 PM ART
Moon 4:34 AM ART (10/20) 4:45 PM ART (10/20)
Length of Visible Light 13h 54m
Length of Day
13h 03m
Tomorrow will be 1m 58s longer.
Waning Crescent, 8% of the Moon is Illuminated
Today
Waning Crescent
Oct 23
New
Oct 30
First Quarter
Nov 6
Full
Nov 14
Last Quarter

Today's Extremes

Country Highs Country Lows

Community

WunderPhotos

Upload Photos

1,763,577 photos uploaded!

Nearby

Snow Depth

Not available.

Earthquake Activity

City Distance Mag. Time & Date
No recent earthquake activity has been reported nearby.
Minimum magnitude displayed is 2.5.

Coastal Water Temperatures

Place Temperature
No Stations Reporting

Nearby Weather Stations